Time;durP1;ratioP1;P1;durP2;ratioP2;P2;SDS_P1;SDS_P2;PMS_P1;PMS_P2;Temp;Humidity;BMP_temperature;BMP_pressure;BME280_temperature;BME280_humidity;BME280_pressure;Samples;Min_cycle;Max_cycle;Signal;HPM_P1;HPM_P2
2022/02/28 00:01:56;;;;;;;21.60;7.68;;;;;;;0.91;91.17;102575.31;5063478;28;20025;-79
2022/02/28 00:04:22;;;;;;;20.13;8.65;;;;;;;0.95;91.06;102564.53;5063585;28;20122;-80
2022/02/28 00:06:48;;;;;;;19.45;7.68;;;;;;;1.05;90.97;102578.81;5063733;28;20024;-80
2022/02/28 00:09:13;;;;;;;14.93;7.95;;;;;;;1.11;91.13;102580.88;5063160;28;20056;-79
2022/02/28 00:11:39;;;;;;;20.55;9.07;;;;;;;1.19;91.08;102578.81;5063687;28;20029;-79
2022/02/28 00:14:04;;;;;;;19.48;8.38;;;;;;;1.21;91.09;102580.72;5064352;28;20025;-79
2022/02/28 00:16:29;;;;;;;22.77;8.40;;;;;;;1.23;91.02;102571.44;5063957;28;20051;-79
2022/02/28 00:18:55;;;;;;;20.45;7.03;;;;;;;1.35;90.85;102580.72;5063638;28;20037;-79
2022/02/28 00:21:20;;;;;;;17.67;8.05;;;;;;;1.31;91.07;102558.28;5064580;28;20025;-79
2022/02/28 00:23:46;;;;;;;24.55;10.48;;;;;;;1.42;90.86;102572.63;5064753;28;20040;-79
2022/02/28 00:26:12;;;;;;;18.83;7.70;;;;;;;1.45;90.81;102566.84;5064658;28;20029;-79
2022/02/28 00:28:37;;;;;;;18.98;7.28;;;;;;;1.52;90.64;102565.56;5045459;28;20101;-79
2022/02/28 00:31:03;;;;;;;20.58;7.60;;;;;;;1.39;90.55;102554.53;5063618;28;20025;-77
2022/02/28 00:33:29;;;;;;;20.38;8.02;;;;;;;1.50;90.50;102559.47;5064020;28;20531;-79
2022/02/28 00:35:54;;;;;;;16.33;6.20;;;;;;;1.53;90.42;102560.56;5063502;28;20402;-79
2022/02/28 00:38:19;;;;;;;25.08;7.10;;;;;;;1.56;90.40;102558.19;5063528;28;20032;-78
2022/02/28 00:40:46;;;;;;;16.42;6.88;;;;;;;1.63;90.39;102553.44;5064399;28;20028;-78
2022/02/28 00:43:11;;;;;;;17.90;6.10;;;;;;;1.61;90.31;102549.09;5068996;28;20065;-79
2022/02/28 00:45:37;;;;;;;15.38;6.88;;;;;;;1.65;90.18;102555.31;5067707;28;20020;-77
2022/02/28 00:48:02;;;;;;;20.23;6.47;;;;;;;1.65;90.35;102555.31;5067338;28;20098;-78
2022/02/28 00:50:27;;;;;;;18.13;5.72;;;;;;;1.66;90.63;102556.19;5066812;28;20024;-76
2022/02/28 00:52:53;;;;;;;17.58;8.20;;;;;;;1.68;90.26;102552.94;5066953;28;20357;-77
2022/02/28 00:55:18;;;;;;;15.80;6.85;;;;;;;1.67;90.10;102558.84;5067657;28;20021;-77
2022/02/28 00:57:44;;;;;;;26.08;7.53;;;;;;;1.70;90.26;102553.94;5069089;28;20471;-77
2022/02/28 01:00:13;;;;;;;17.98;7.57;;;;;;;1.73;90.06;102554.13;5069156;28;20108;-78
2022/02/28 01:02:39;;;;;;;20.95;6.32;;;;;;;1.71;90.21;102560.81;5068366;28;20021;-78
2022/02/28 01:05:05;;;;;;;20.60;8.75;;;;;;;1.71;89.84;102547.13;5067901;28;20040;-78
2022/02/28 01:07:31;;;;;;;13.20;6.93;;;;;;;1.73;89.83;102558.34;5067197;28;20119;-78
2022/02/28 01:09:56;;;;;;;11.38;4.68;;;;;;;1.79;89.71;102558.72;5067257;28;20115;-79
2022/02/28 01:12:22;;;;;;;19.15;7.50;;;;;;;1.75;89.73;102553.31;5050652;28;20025;-77
2022/02/28 01:14:48;;;;;;;14.90;7.55;;;;;;;1.68;89.79;102544.34;5068273;28;20103;-77
2022/02/28 01:17:14;;;;;;;16.30;7.18;;;;;;;1.76;89.87;102540.59;5067257;28;20119;-77
2022/02/28 01:19:41;;;;;;;17.88;6.60;;;;;;;1.75;89.83;102535.38;5067700;28;20021;-77
2022/02/28 01:22:09;;;;;;;8.98;5.05;;;;;;;1.69;89.60;102535.91;5067689;28;20032;-76
2022/02/28 01:24:38;;;;;;;18.63;8.57;;;;;;;1.72;89.71;102554.91;5066391;28;20017;-79
2022/02/28 01:27:05;;;;;;;17.67;7.38;;;;;;;1.75;89.82;102546.53;5067597;28;20031;-78
2022/02/28 01:29:30;;;;;;;19.67;8.07;;;;;;;1.67;89.78;102540.94;5066910;28;20088;-78
2022/02/28 01:31:56;;;;;;;22.08;8.23;;;;;;;1.67;89.27;102546.06;5067734;28;20032;-78
2022/02/28 01:34:21;;;;;;;17.85;8.38;;;;;;;1.70;89.35;102543.69;5069021;28;20071;-78
2022/02/28 01:36:46;;;;;;;21.77;8.80;;;;;;;1.70;89.53;102553.03;5068197;28;20502;-78
2022/02/28 01:39:12;;;;;;;15.70;8.55;;;;;;;1.65;89.67;102554.41;5069092;28;20036;-77
2022/02/28 01:41:37;;;;;;;23.67;8.07;;;;;;;1.64;89.63;102553.53;5049797;28;20021;-78
2022/02/28 01:44:08;;;;;;;27.33;8.27;;;;;;;1.61;89.46;102548.22;5067517;28;20016;-78
2022/02/28 01:46:34;;;;;;;20.85;7.55;;;;;;;1.53;89.50;102551.97;5066998;28;20074;-78
2022/02/28 01:48:59;;;;;;;21.20;8.77;;;;;;;1.49;89.50;102543.19;5048785;28;20055;-79
2022/02/28 01:51:25;;;;;;;18.50;8.52;;;;;;;1.50;89.43;102541.53;5048100;28;20089;-78
2022/02/28 01:53:51;;;;;;;16.02;7.57;;;;;;;1.44;89.47;102549.69;5064525;28;20028;-78
2022/02/28 01:56:16;;;;;;;25.05;8.32;;;;;;;1.41;89.43;102545.28;5066434;28;20017;-80
2022/02/28 01:58:42;;;;;;;18.17;8.52;;;;;;;1.35;89.30;102530.41;5067464;28;20021;-78
2022/02/28 02:01:08;;;;;;;17.45;8.45;;;;;;;1.38;89.59;102539.06;5065538;28;20410;-78
2022/02/28 02:03:33;;;;;;;19.67;7.43;;;;;;;1.35;89.57;102539.75;5065537;28;20051;-78
2022/02/28 02:05:59;;;;;;;25.63;8.95;;;;;;;1.32;89.34;102534.44;5065792;28;20520;-78
2022/02/28 02:08:26;;;;;;;15.43;6.63;;;;;;;1.31;89.79;102537.81;5065446;28;20024;-78
2022/02/28 02:10:52;;;;;;;17.90;8.23;;;;;;;1.34;89.86;102532.88;5065540;28;20052;-79
2022/02/28 02:13:18;;;;;;;20.48;9.00;;;;;;;1.38;89.92;102532.28;5065509;28;20114;-78
2022/02/28 02:15:43;;;;;;;14.40;7.90;;;;;;;1.37;89.71;102522.84;5065481;28;20021;-78
2022/02/28 02:18:09;;;;;;;16.70;7.68;;;;;;;1.42;89.94;102529.13;5065168;28;20029;-77
2022/02/28 02:20:39;;;;;;;21.55;8.60;;;;;;;1.48;90.07;102532.09;5065109;28;20022;-77
2022/02/28 02:23:07;;;;;;;22.80;8.75;;;;;;;1.51;89.95;102533.06;5064912;28;20021;-77
2022/02/28 02:25:34;;;;;;;20.60;9.52;;;;;;;1.54;90.11;102530.69;5064725;28;20051;-79
2022/02/28 02:27:59;;;;;;;20.42;8.82;;;;;;;1.58;90.04;102527.56;5065474;28;20060;-78
2022/02/28 02:30:24;;;;;;;24.95;9.43;;;;;;;1.60;90.12;102518.28;5066088;28;20024;-77
2022/02/28 02:32:50;;;;;;;20.17;8.10;;;;;;;1.69;89.89;102520.53;5047486;28;20603;-78
2022/02/28 02:35:15;;;;;;;19.00;7.88;;;;;;;1.64;89.98;102514.25;5065429;28;20447;-76
2022/02/28 02:37:41;;;;;;;16.85;9.02;;;;;;;1.63;89.91;102505.66;5064751;28;20049;-77
2022/02/28 02:40:08;;;;;;;20.13;8.73;;;;;;;1.68;90.05;102511.06;5064580;28;20338;-77
2022/02/28 02:42:34;;;;;;;19.00;9.02;;;;;;;1.70;89.99;102512.94;5065617;28;20024;-78
2022/02/28 02:44:59;;;;;;;34.03;9.45;;;;;;;1.70;89.97;102502.72;5066918;28;20089;-79
2022/02/28 02:47:24;;;;;;;17.52;8.52;;;;;;;1.79;89.83;102509.19;5067856;28;20029;-78
2022/02/28 02:49:50;;;;;;;22.33;8.95;;;;;;;1.78;89.84;102494.59;5068156;28;20025;-78
2022/02/28 02:52:15;;;;;;;26.33;10.77;;;;;;;1.76;89.93;102491.09;5068733;28;20017;-78
2022/02/28 02:54:40;;;;;;;23.27;9.30;;;;;;;1.81;89.91;102494.78;5066152;28;20048;-78
2022/02/28 02:57:06;;;;;;;17.73;7.00;;;;;;;1.82;89.83;102494.88;5067675;28;20033;-78
2022/02/28 02:59:31;;;;;;;17.20;9.07;;;;;;;1.80;89.88;102501.59;5065502;28;20025;-78
2022/02/28 03:01:57;;;;;;;20.70;9.88;;;;;;;1.79;89.94;102499.81;5065581;28;20017;-78
2022/02/28 03:04:22;;;;;;;17.80;9.32;;;;;;;1.82;89.90;102497.44;5066414;28;20044;-78
2022/02/28 03:06:47;;;;;;;25.70;9.18;;;;;;;1.84;89.92;102483.06;5049449;28;20082;-79
2022/02/28 03:09:14;;;;;;;25.13;10.68;;;;;;;1.91;89.90;102502.25;5068410;28;20034;-79
2022/02/28 03:11:42;;;;;;;18.50;9.23;;;;;;;1.89;89.83;102498.72;5068363;28;20400;-78
2022/02/28 03:14:08;;;;;;;22.27;9.27;;;;;;;1.89;89.75;102490.13;5068868;28;20103;-79
2022/02/28 03:16:33;;;;;;;22.45;9.52;;;;;;;1.90;89.75;102494.50;5067449;28;20082;-79
2022/02/28 03:18:59;;;;;;;22.85;10.57;;;;;;;1.86;89.75;102488.28;5067066;28;20036;-79
2022/02/28 03:21:24;;;;;;;18.83;9.43;;;;;;;1.88;89.77;102494.41;5068356;28;20082;-78
2022/02/28 03:23:49;;;;;;;19.67;8.80;;;;;;;1.92;89.61;102498.00;5068998;28;20051;-79
2022/02/28 03:26:15;;;;;;;22.75;10.20;;;;;;;1.80;89.78;102486.25;5047192;28;20021;-78
2022/02/28 03:28:40;;;;;;;25.73;8.75;;;;;;;1.86;89.82;102488.28;5066071;28;20086;-78
2022/02/28 03:31:05;;;;;;;18.83;9.77;;;;;;;1.89;89.54;102485.00;5065791;28;20024;-79
2022/02/28 03:33:31;;;;;;;24.25;8.98;;;;;;;1.85;89.67;102487.38;5067569;28;20024;-79
2022/02/28 03:35:56;;;;;;;18.58;9.73;;;;;;;1.85;89.64;102489.09;5067309;28;20048;-78
2022/02/28 03:38:22;;;;;;;22.00;9.25;;;;;;;1.83;89.74;102482.97;5067477;28;20237;-79
2022/02/28 03:40:48;;;;;;;21.90;10.07;;;;;;;1.86;90.02;102485.72;5066657;28;20043;-77
2022/02/28 03:43:14;;;;;;;19.63;9.45;;;;;;;1.88;90.04;102470.44;5066826;28;20050;-77
2022/02/28 03:45:39;;;;;;;20.42;9.43;;;;;;;1.89;90.07;102485.91;5066013;28;20021;-78
2022/02/28 03:48:05;;;;;;;21.55;9.48;;;;;;;1.92;90.20;102473.28;5046113;28;20253;-78
2022/02/28 03:50:30;;;;;;;32.58;11.85;;;;;;;1.90;89.91;102477.41;5063736;28;20028;-78
2022/02/28 03:52:55;;;;;;;20.40;10.05;;;;;;;1.96;89.63;102482.06;5064175;28;20052;-77
2022/02/28 03:55:21;;;;;;;21.23;8.65;;;;;;;1.91;89.80;102471.53;5063915;28;20024;-77
2022/02/28 03:57:47;;;;;;;20.52;8.75;;;;;;;1.95;89.85;102475.16;5066571;28;20079;-79
2022/02/28 04:00:13;;;;;;;23.27;9.32;;;;;;;1.91;89.97;102476.66;5068010;28;20017;-79
2022/02/28 04:02:39;;;;;;;17.42;8.48;;;;;;;1.80;89.75;102452.94;5047817;28;20016;-78
2022/02/28 04:05:05;;;;;;;32.38;10.20;;;;;;;1.90;89.49;102471.44;5065845;28;20071;-79
2022/02/28 04:07:31;;;;;;;19.75;8.93;;;;;;;1.92;89.21;102464.69;5067127;28;20017;-78
2022/02/28 04:09:56;;;;;;;24.10;9.00;;;;;;;1.84;89.69;102462.56;5066952;28;20119;-78
2022/02/28 04:12:21;;;;;;;20.70;6.75;;;;;;;1.83;89.40;102458.25;5065745;28;20025;-79
2022/02/28 04:14:47;;;;;;;23.77;9.95;;;;;;;1.83;89.19;102452.25;5063846;28;20029;-78
2022/02/28 04:17:13;;;;;;;22.98;9.85;;;;;;;1.80;89.35;102450.38;5049332;28;20025;-78
2022/02/28 04:19:39;;;;;;;26.23;10.77;;;;;;;1.78;89.74;102448.50;5067555;28;20082;-78
2022/02/28 04:22:04;;;;;;;20.63;9.55;;;;;;;1.77;89.96;102442.50;5050563;28;20033;-78
2022/02/28 04:24:30;;;;;;;21.58;9.18;;;;;;;1.79;90.09;102440.06;5069942;28;20070;-78
2022/02/28 04:26:57;;;;;;;21.20;8.93;;;;;;;1.83;89.90;102439.44;5069357;28;20032;-79
2022/02/28 04:29:23;;;;;;;21.65;9.95;;;;;;;1.83;89.92;102435.19;5069903;28;20017;-80
2022/02/28 04:31:48;;;;;;;18.30;7.88;;;;;;;1.80;90.02;102439.25;5068629;28;20032;-78
2022/02/28 04:34:14;;;;;;;28.88;10.82;;;;;;;1.83;90.13;102440.31;5069957;28;20025;-78
2022/02/28 04:36:40;;;;;;;24.90;8.77;;;;;;;1.85;90.20;102442.97;5050072;28;20049;-78
2022/02/28 04:39:05;;;;;;;15.82;8.15;;;;;;;1.83;90.42;102432.63;5066998;28;20032;-76
2022/02/28 04:41:31;;;;;;;24.58;9.68;;;;;;;1.90;90.12;102440.69;5067004;28;20032;-78
2022/02/28 04:43:56;;;;;;;24.42;8.48;;;;;;;1.88;90.25;102439.72;5067181;28;20029;-79
2022/02/28 04:46:22;;;;;;;24.38;8.68;;;;;;;1.91;90.13;102433.09;5067088;28;20025;-79
2022/02/28 04:48:47;;;;;;;23.17;9.68;;;;;;;1.90;90.14;102428.75;5067191;28;20028;-79
2022/02/28 04:51:12;;;;;;;27.08;10.40;;;;;;;1.92;89.97;102418.59;5066918;28;20047;-78
2022/02/28 04:53:37;;;;;;;25.00;9.38;;;;;;;1.82;90.07;102409.50;5066398;28;20031;-79
2022/02/28 04:56:03;;;;;;;17.98;8.77;;;;;;;1.92;89.76;102426.28;5048921;28;20021;-80
2022/02/28 04:58:29;;;;;;;12.93;6.28;;;;;;;1.81;90.00;102413.72;5066890;28;20033;-80
2022/02/28 05:00:54;;;;;;;21.85;7.20;;;;;;;1.84;89.88;102419.03;5066670;28;20029;-80
2022/02/28 05:03:20;;;;;;;28.02;9.40;;;;;;;1.84;90.25;102419.03;5066888;28;20411;-75
2022/02/28 05:05:45;;;;;;;27.33;10.57;;;;;;;1.85;90.22;102425.91;5067314;28;20028;-80
2022/02/28 05:08:11;;;;;;;22.63;9.98;;;;;;;1.91;90.13;102422.84;5066936;28;20024;-81
2022/02/28 05:10:36;;;;;;;22.98;8.57;;;;;;;1.90;90.00;102418.50;5066490;28;20017;-82
2022/02/28 05:13:03;;;;;;;31.63;10.63;;;;;;;1.91;90.09;102417.72;5066338;28;20048;-81
2022/02/28 05:15:28;;;;;;;30.42;9.38;;;;;;;1.84;90.01;102407.88;5066560;28;20048;-81
2022/02/28 05:17:54;;;;;;;24.92;9.10;;;;;;;1.95;89.71;102418.81;5067161;28;20297;-82
2022/02/28 05:20:19;;;;;;;19.25;9.13;;;;;;;1.88;89.59;102417.53;5066462;28;20056;-81
2022/02/28 05:22:45;;;;;;;17.83;10.45;;;;;;;1.86;89.97;102421.69;5066703;28;20028;-80
2022/02/28 05:25:11;;;;;;;22.85;8.45;;;;;;;1.89;90.05;102416.75;5066729;28;20051;-73
2022/02/28 05:27:43;;;;;;;20.92;10.38;;;;;;;1.89;90.19;102411.63;5064958;28;20036;-73
2022/02/28 05:30:10;;;;;;;18.83;8.25;;;;;;;1.90;90.29;102407.38;5066188;28;20025;-73
2022/02/28 05:32:37;;;;;;;19.73;9.93;;;;;;;1.93;90.10;102420.38;5048129;28;20032;-68
2022/02/28 05:35:03;;;;;;;21.77;12.23;;;;;;;1.91;90.05;102415.16;5066110;28;20029;-75
2022/02/28 05:37:29;;;;;;;15.80;7.80;;;;;;;1.85;89.60;102399.44;5047935;28;20055;-74
2022/02/28 05:39:54;;;;;;;20.48;9.05;;;;;;;1.93;89.67;102408.44;5047406;28;20056;-75
2022/02/28 05:42:19;;;;;;;18.52;8.65;;;;;;;1.83;89.45;102395.88;5065557;28;20036;-75
2022/02/28 05:44:45;;;;;;;21.20;8.93;;;;;;;1.83;89.49;102404.47;5066032;28;20029;-74
2022/02/28 05:47:10;;;;;;;18.95;9.13;;;;;;;1.78;89.49;102399.84;5066136;28;20516;-74
2022/02/28 05:49:35;;;;;;;21.38;11.48;;;;;;;1.87;89.72;102413.19;5065794;28;20334;-74
2022/02/28 05:52:01;;;;;;;29.70;8.27;;;;;;;1.85;89.81;102414.81;5047759;28;20028;-74
2022/02/28 05:54:27;;;;;;;25.27;9.07;;;;;;;1.71;90.05;102399.47;5065010;28;20063;-75
2022/02/28 05:56:52;;;;;;;21.95;7.50;;;;;;;1.88;90.04;102420.09;5065072;28;20033;-74
2022/02/28 05:59:18;;;;;;;17.27;7.00;;;;;;;1.85;89.63;102409.69;5065180;28;20495;-75
2022/02/28 06:01:44;;;;;;;16.25;7.00;;;;;;;1.67;89.85;102392.41;5065681;28;20045;-74
2022/02/28 06:04:09;;;;;;;27.42;11.27;;;;;;;1.76;89.43;102399.75;5065263;28;20051;-74
2022/02/28 06:06:35;;;;;;;23.13;8.35;;;;;;;1.75;89.68;102408.22;5065135;28;20044;-73
2022/02/28 06:09:03;;;;;;;21.02;9.10;;;;;;;1.70;89.47;102404.50;5046856;28;20025;-73
2022/02/28 06:11:29;;;;;;;25.30;10.25;;;;;;;1.80;89.67;102413.63;5065483;28;20017;-74
2022/02/28 06:13:54;;;;;;;30.25;11.70;;;;;;;1.71;89.97;102403.72;5065721;28;20028;-74
2022/02/28 06:16:20;;;;;;;30.80;11.80;;;;;;;1.76;89.79;102409.13;5047457;28;20389;-73
2022/02/28 06:18:45;;;;;;;25.52;12.48;;;;;;;1.79;89.97;102414.44;5065431;28;20028;-75
2022/02/28 06:21:10;;;;;;;32.35;13.50;;;;;;;1.70;90.01;102399.38;5064837;28;20040;-74
2022/02/28 06:23:36;;;;;;;25.65;12.05;;;;;;;1.80;90.02;102405.94;5046494;28;20147;-73
2022/02/28 06:26:01;;;;;;;27.05;11.60;;;;;;;1.72;90.13;102402.94;5064985;28;20021;-73
2022/02/28 06:28:31;;;;;;;29.75;12.68;;;;;;;1.78;90.03;102399.84;5065473;28;20025;-73
2022/02/28 06:30:56;;;;;;;34.42;14.65;;;;;;;1.78;89.84;102400.72;5046747;28;20407;-74
2022/02/28 06:33:22;;;;;;;22.67;11.38;;;;;;;1.60;90.10;102380.00;5065177;28;20025;-73
2022/02/28 06:35:48;;;;;;;21.88;8.63;;;;;;;1.91;90.11;102420.28;5064820;28;20049;-74
2022/02/28 06:38:15;;;;;;;30.88;11.25;;;;;;;1.91;89.50;102412.59;5064675;28;20035;-73
2022/02/28 06:40:41;;;;;;;18.40;8.70;;;;;;;1.78;89.22;102379.34;5064289;28;20044;-74
2022/02/28 06:43:07;;;;;;;25.00;10.68;;;;;;;1.92;88.62;102406.69;5064964;28;20028;-72
2022/02/28 06:45:32;;;;;;;17.38;8.25;;;;;;;2.01;87.87;102400.34;5064559;28;20035;-73
2022/02/28 06:47:57;;;;;;;23.67;10.10;;;;;;;1.76;88.60;102401.44;5064390;28;20029;-75
2022/02/28 06:50:23;;;;;;;18.70;9.05;;;;;;;1.75;89.33;102417.59;5063856;28;20085;-74
2022/02/28 06:52:48;;;;;;;26.60;11.23;;;;;;;1.66;89.00;102393.19;5046180;28;20028;-74
2022/02/28 06:55:13;;;;;;;25.75;11.40;;;;;;;1.83;89.00;102416.38;5063749;28;20348;-73
2022/02/28 06:57:39;;;;;;;25.33;12.63;;;;;;;1.67;89.41;102397.53;5064062;28;20239;-74
2022/02/28 07:00:05;;;;;;;16.73;8.07;;;;;;;1.92;88.45;102405.78;5045535;28;20028;-74
2022/02/28 07:02:31;;;;;;;30.50;12.48;;;;;;;1.79;88.86;102414.44;5063919;28;20013;-74
2022/02/28 07:04:56;;;;;;;22.58;9.68;;;;;;;1.74;88.94;102409.03;5063745;28;20081;-73
2022/02/28 07:07:22;;;;;;;33.55;12.57;;;;;;;1.77;89.39;102419.47;5063696;28;20032;-75
2022/02/28 07:09:47;;;;;;;30.30;13.30;;;;;;;1.64;89.62;102407.59;5045069;28;20098;-74
2022/02/28 07:12:13;;;;;;;35.80;14.70;;;;;;;1.77;89.62;102423.69;5063538;28;20024;-73
2022/02/28 07:14:39;;;;;;;32.03;15.00;;;;;;;1.76;89.46;102419.38;5063622;28;20084;-74
2022/02/28 07:17:05;;;;;;;29.65;14.68;;;;;;;1.61;89.20;102394.59;5063545;28;20024;-73
2022/02/28 07:19:32;;;;;;;30.83;14.20;;;;;;;1.68;89.53;102416.31;5063262;28;20048;-73
2022/02/28 07:21:58;;;;;;;21.58;10.45;;;;;;;1.64;90.02;102406.69;5045311;28;20346;-74
2022/02/28 07:24:23;;;;;;;26.17;13.38;;;;;;;1.84;88.96;102426.72;5063023;28;20365;-73
2022/02/28 07:26:48;;;;;;;32.53;15.23;;;;;;;1.67;89.48;102410.34;5044523;28;20021;-74
2022/02/28 07:29:14;;;;;;;19.60;8.35;;;;;;;1.91;89.24;102421.97;5062080;28;20033;-73
2022/02/28 07:31:39;;;;;;;17.10;9.10;;;;;;;1.87;88.60;102433.69;5062784;28;20028;-74
2022/02/28 07:34:05;;;;;;;28.30;13.23;;;;;;;1.79;89.12;102440.91;5063246;28;20472;-73
2022/02/28 07:36:30;;;;;;;26.70;14.73;;;;;;;1.75;89.21;102420.16;5044820;28;20048;-73
2022/02/28 07:38:55;;;;;;;25.80;13.18;;;;;;;1.62;89.73;102404.03;5062741;28;20043;-73
2022/02/28 07:41:21;;;;;;;28.20;11.02;;;;;;;2.03;90.12;102429.50;5062944;28;20396;-73
2022/02/28 07:43:46;;;;;;;19.42;9.90;;;;;;;2.38;89.46;102440.94;5044959;28;20496;-72
2022/02/28 07:46:12;;;;;;;19.92;9.23;;;;;;;2.27;89.36;102413.81;5063108;28;20029;-73
2022/02/28 07:48:37;;;;;;;19.45;8.73;;;;;;;2.28;89.57;102402.75;5062914;28;20028;-73
2022/02/28 07:51:02;;;;;;;18.83;9.20;;;;;;;2.52;89.80;102416.13;5062518;28;20025;-73
2022/02/28 07:53:28;;;;;;;15.32;8.95;;;;;;;2.79;90.00;102436.44;5063087;28;20029;-73
2022/02/28 07:55:53;;;;;;;20.48;10.68;;;;;;;2.83;89.28;102434.91;5063377;28;20016;-73
2022/02/28 07:58:18;;;;;;;22.65;8.75;;;;;;;2.89;89.33;102436.94;5063138;28;20108;-73
2022/02/28 08:00:44;;;;;;;12.88;6.53;;;;;;;3.07;87.52;102443.09;5062691;28;20044;-73
2022/02/28 08:03:09;;;;;;;18.05;8.40;;;;;;;2.89;87.61;102440.38;5062802;28;20114;-73
2022/02/28 08:05:35;;;;;;;17.70;8.35;;;;;;;2.97;88.22;102436.56;5063116;28;20029;-73
2022/02/28 08:08:00;;;;;;;15.68;7.68;;;;;;;3.02;87.86;102441.09;5062404;28;20021;-73
2022/02/28 08:10:25;;;;;;;15.20;6.75;;;;;;;3.08;87.02;102446.56;5061636;28;20055;-73
2022/02/28 08:12:51;;;;;;;12.35;5.75;;;;;;;3.10;84.82;102433.00;5043280;28;20033;-74
2022/02/28 08:15:16;;;;;;;15.75;5.55;;;;;;;2.99;84.24;102443.50;5061217;28;20017;-72
2022/02/28 08:17:42;;;;;;;15.43;7.15;;;;;;;2.83;86.45;102429.78;5062159;28;20449;-72
2022/02/28 08:20:08;;;;;;;14.80;6.70;;;;;;;3.29;85.58;102425.44;5062490;28;20094;-72
2022/02/28 08:22:33;;;;;;;19.63;8.93;;;;;;;3.20;84.49;102428.38;5062396;28;20088;-73
2022/02/28 08:24:59;;;;;;;14.60;7.88;;;;;;;3.30;84.79;102422.06;5062360;28;20028;-72
2022/02/28 08:27:25;;;;;;;16.33;7.03;;;;;;;3.66;83.98;102422.25;5061444;28;20031;-73
2022/02/28 08:29:51;;;;;;;11.15;6.43;;;;;;;3.89;82.73;102421.72;5061806;28;20551;-73
2022/02/28 08:32:16;;;;;;;9.75;4.25;;;;;;;4.07;82.28;102439.78;5044589;28;20021;-73
2022/02/28 08:34:42;;;;;;;11.82;6.35;;;;;;;4.33;82.98;102429.91;5062545;28;20100;-72
2022/02/28 08:37:07;;;;;;;17.55;7.00;;;;;;;4.64;81.42;102423.72;5062217;28;20125;-72
2022/02/28 08:39:33;;;;;;;17.58;6.95;;;;;;;5.20;80.58;102425.47;5061854;28;20457;-71
2022/02/28 08:41:58;;;;;;;14.30;6.22;;;;;;;5.59;81.26;102406.63;5061515;28;20066;-72
2022/02/28 08:44:24;;;;;;;10.88;4.30;;;;;;;6.14;76.97;102407.28;5062522;28;20092;-72
2022/02/28 08:46:49;;;;;;;8.55;4.70;;;;;;;6.20;77.59;102404.06;5062254;28;20035;-72
2022/02/28 08:49:17;;;;;;;7.70;4.82;;;;;;;6.58;75.42;102429.72;5062445;28;20017;-71
2022/02/28 08:51:46;;;;;;;13.52;5.75;;;;;;;6.62;74.81;102426.44;5044523;28;20372;-72
2022/02/28 08:54:11;;;;;;;15.88;7.30;;;;;;;6.56;75.26;102421.03;5062224;28;20029;-72
2022/02/28 08:56:37;;;;;;;12.15;4.78;;;;;;;6.86;68.70;102412.75;5062297;28;20028;-72
2022/02/28 08:59:03;;;;;;;13.85;5.90;;;;;;;6.73;72.38;102413.06;5044385;28;20032;-72
2022/02/28 09:01:29;;;;;;;12.70;3.75;;;;;;;6.97;70.92;102396.78;5062267;28;20079;-73
2022/02/28 09:03:54;;;;;;;6.70;3.70;;;;;;;7.00;70.50;102420.16;5065961;28;20055;-71
2022/02/28 09:06:19;;;;;;;10.80;3.88;;;;;;;7.00;73.57;102417.56;5065933;28;20093;-72
2022/02/28 09:08:45;;;;;;;11.95;4.53;;;;;;;7.63;74.72;102415.59;5065589;28;20089;-72
2022/02/28 09:11:10;;;;;;;9.77;4.13;;;;;;;8.18;70.73;102416.66;5065696;28;20021;-71
2022/02/28 09:13:36;;;;;;;13.32;4.75;;;;;;;8.31;70.63;102417.97;5065862;28;20024;-72
2022/02/28 09:16:03;;;;;;;7.07;3.47;;;;;;;8.40;71.01;102419.97;5065989;28;20021;-72
2022/02/28 09:18:28;;;;;;;10.45;3.90;;;;;;;8.60;69.06;102412.00;5065917;28;20039;-72
2022/02/28 09:20:54;;;;;;;9.90;3.72;;;;;;;8.58;69.02;102415.41;5065478;28;20088;-71
2022/02/28 09:23:20;;;;;;;7.93;4.00;;;;;;;8.65;71.13;102418.22;5047640;28;20029;-72
2022/02/28 09:25:45;;;;;;;9.90;3.72;;;;;;;8.88;72.31;102415.47;5065392;28;20032;-72
2022/02/28 09:28:10;;;;;;;9.20;3.55;;;;;;;9.03;72.14;102419.38;5046134;28;20021;-71
2022/02/28 09:30:36;;;;;;;7.78;3.55;;;;;;;9.31;71.77;102415.03;5065384;28;20387;-70
2022/02/28 09:33:02;;;;;;;8.18;3.40;;;;;;;9.57;70.59;102417.47;5065289;28;20081;-71
2022/02/28 09:35:27;;;;;;;6.85;2.95;;;;;;;9.69;70.74;102423.84;5065289;28;20119;-70
2022/02/28 09:37:54;;;;;;;7.10;3.20;;;;;;;9.62;70.35;102412.41;5065497;28;20050;-72
2022/02/28 09:40:25;;;;;;;11.15;2.92;;;;;;;9.92;71.21;102420.16;5064785;28;20052;-71
2022/02/28 09:42:54;;;;;;;6.05;2.75;;;;;;;9.78;68.96;102424.09;5065583;28;20048;-70
2022/02/28 09:45:20;;;;;;;6.72;2.83;;;;;;;9.78;70.75;102421.50;5065268;28;20029;-70
2022/02/28 09:47:45;;;;;;;7.30;3.53;;;;;;;9.99;72.13;102415.13;5065021;28;20480;-71
2022/02/28 09:50:11;;;;;;;7.47;3.08;;;;;;;10.06;69.46;102414.47;5064944;28;20032;-71
2022/02/28 09:52:36;;;;;;;6.63;2.65;;;;;;;10.00;70.19;102422.09;5046830;28;20058;-72
2022/02/28 09:55:02;;;;;;;5.20;2.70;;;;;;;9.71;65.88;102417.00;5064686;28;20017;-72
2022/02/28 09:57:29;;;;;;;8.60;3.67;;;;;;;9.50;68.32;102420.75;5065105;28;20032;-72
2022/02/28 09:59:54;;;;;;;6.45;2.70;;;;;;;9.28;69.72;102414.94;5063368;28;20105;-71
2022/02/28 10:02:19;;;;;;;5.95;2.67;;;;;;;9.27;69.14;102426.13;5064839;28;20056;-71
2022/02/28 10:04:45;;;;;;;6.03;2.58;;;;;;;9.26;69.06;102422.66;5063957;28;20025;-71
2022/02/28 10:07:22;;;;;;;5.40;2.65;;;;;;;9.35;69.58;102422.03;5063609;28;20330;-72
2022/02/28 10:10:11;;;;;;;7.13;2.25;;;;;;;9.54;71.07;102426.06;5063265;28;20031;-72
2022/02/28 10:12:37;;;;;;;4.78;2.80;;;;;;;9.74;69.23;102412.78;5064641;28;20032;-72
2022/02/28 10:15:06;;;;;;;5.82;2.70;;;;;;;10.19;67.65;102425.16;5045933;28;20021;-71
2022/02/28 10:17:41;;;;;;;8.63;3.10;;;;;;;10.91;65.31;102415.66;5046630;28;20179;-72
2022/02/28 10:20:28;;;;;;;5.85;2.25;;;;;;;11.58;63.77;102429.19;5064346;28;20105;-73
2022/02/28 10:22:58;;;;;;;5.28;1.63;;;;;;;11.88;61.29;102434.97;5045475;28;20444;-72
2022/02/28 10:25:34;;;;;;;5.30;2.42;;;;;;;11.92;56.84;102428.09;5064300;28;20046;-72
2022/02/28 10:28:09;;;;;;;7.35;2.58;;;;;;;11.62;56.16;102425.81;5064746;28;20021;-71
2022/02/28 10:30:34;;;;;;;3.70;1.95;;;;;;;11.32;53.81;102432.16;5064294;28;20159;-72
2022/02/28 10:33:11;;;;;;;6.72;2.20;;;;;;;11.23;54.30;102443.22;5064340;28;20147;-72
2022/02/28 10:35:59;;;;;;;6.90;1.90;;;;;;;10.70;56.97;102438.56;5044802;28;20017;-71
2022/02/28 10:38:26;;;;;;;3.80;1.95;;;;;;;10.17;54.04;102432.91;5045241;28;20024;-71
2022/02/28 10:40:52;;;;;;;8.23;2.50;;;;;;;9.61;55.81;102434.91;5061364;28;20021;-73
2022/02/28 10:43:36;;;;;;;4.95;1.92;;;;;;;9.32;57.40;102437.50;5064262;28;20146;-72
2022/02/28 10:46:29;;;;;;;2.83;1.42;;;;;;;9.46;55.91;102450.88;5064203;28;20230;-70
2022/02/28 10:49:04;;;;;;;6.70;2.85;;;;;;;9.16;58.00;102433.56;5064150;28;20021;-72
2022/02/28 10:51:43;;;;;;;5.93;2.42;;;;;;;9.40;57.88;102435.13;5046094;28;20025;-73
2022/02/28 10:54:20;;;;;;;3.30;2.40;;;;;;;9.62;57.99;102433.16;5045831;28;20430;-73
2022/02/28 10:56:50;;;;;;;6.22;2.67;;;;;;;9.95;56.36;102441.84;5064217;28;20100;-71
2022/02/28 10:59:20;;;;;;;9.57;2.83;;;;;;;10.13;57.32;102438.84;5063940;28;20025;-72
2022/02/28 11:01:45;;;;;;;6.55;2.40;;;;;;;10.47;54.70;102428.47;5063872;28;20025;-72
2022/02/28 11:04:12;;;;;;;10.10;3.28;;;;;;;10.94;55.49;102429.59;5063907;28;20028;-72
2022/02/28 11:06:38;;;;;;;6.85;2.55;;;;;;;11.44;52.90;102436.72;5045752;28;20021;-73
2022/02/28 11:09:04;;;;;;;10.20;2.75;;;;;;;11.58;52.60;102423.13;5063671;28;20116;-73
2022/02/28 11:11:31;;;;;;;8.80;2.78;;;;;;;11.60;49.94;102426.63;5063503;28;20021;-74
2022/02/28 11:13:57;;;;;;;8.57;3.30;;;;;;;11.59;50.45;102428.34;5063446;28;20043;-71
2022/02/28 11:16:22;;;;;;;5.65;2.17;;;;;;;11.47;49.32;102423.78;5063518;28;20021;-72
2022/02/28 11:18:48;;;;;;;7.22;2.90;;;;;;;11.66;49.03;102424.16;5063671;28;20360;-71
2022/02/28 11:21:14;;;;;;;6.93;2.30;;;;;;;12.03;51.61;102419.63;5063185;28;20087;-73